createdAt,value
2019-04-20T00:00:24.968Z,67.2
2019-04-20T00:01:38.914Z,64.7
2019-04-20T00:02:53.106Z,64.6
2019-04-20T00:04:07.255Z,64.9
2019-04-20T00:05:21.654Z,62.4
2019-04-20T00:06:35.633Z,65.8
2019-04-20T00:07:49.922Z,64.5
2019-04-20T00:09:04.037Z,62.7
2019-04-20T00:10:18.175Z,62.5
2019-04-20T00:11:32.384Z,64
2019-04-20T00:12:46.607Z,61.7
2019-04-20T00:14:00.737Z,63.7
2019-04-20T00:15:14.872Z,60.6
2019-04-20T00:16:29.211Z,63.2
2019-04-20T00:17:43.229Z,61.7
2019-04-20T00:18:57.432Z,63.5
2019-04-20T00:20:11.708Z,61.7
2019-04-20T00:21:25.769Z,62.7
2019-04-20T00:22:40.025Z,64.4
2019-04-20T00:23:54.181Z,62.5
2019-04-20T00:25:08.336Z,63.4
2019-04-20T00:26:22.470Z,62.4
2019-04-20T00:27:36.689Z,69.3
2019-04-20T00:28:50.936Z,65.8
2019-04-20T00:30:05.048Z,68.1
2019-04-20T00:31:19.223Z,67.9
2019-04-20T00:32:33.472Z,66.3
2019-04-20T00:33:47.576Z,66
2019-04-20T00:35:01.727Z,66.8
2019-04-20T00:36:15.947Z,64.7
2019-04-20T00:37:30.095Z,63
2019-04-20T00:38:44.294Z,63.7
2019-04-20T00:39:58.450Z,65.9
2019-04-20T00:41:12.635Z,66.5
2019-04-20T00:42:26.800Z,66.6
2019-04-20T00:43:41.222Z,67.4
2019-04-20T00:44:55.182Z,66.1
2019-04-20T00:46:09.364Z,66.9
2019-04-20T00:47:23.546Z,67.2
2019-04-20T00:48:37.736Z,65.8
2019-04-20T00:49:51.983Z,65.5
2019-04-20T00:51:06.039Z,66.4
2019-04-20T00:52:20.424Z,65.2
2019-04-20T00:53:34.473Z,65.1
2019-04-20T00:54:48.641Z,66.1
2019-04-20T00:56:02.781Z,66.1
2019-04-20T00:57:16.933Z,66.5
2019-04-20T00:58:31.106Z,66.5
2019-04-20T00:59:45.320Z,67.9
2019-04-20T01:00:59.478Z,69.5
2019-04-20T01:02:13.845Z,68.1
2019-04-20T01:03:27.798Z,68
2019-04-20T01:04:41.972Z,71.3
2019-04-20T01:05:56.232Z,71.5
2019-04-20T01:07:10.322Z,70.8
2019-04-20T01:08:24.489Z,71
2019-04-20T01:09:38.723Z,68.3
2019-04-20T01:10:52.933Z,69.6
2019-04-20T01:12:09.716Z,69.8
2019-04-20T01:13:21.200Z,70.8
2019-04-20T01:14:35.532Z,69.2
2019-04-20T01:15:49.581Z,69.3
2019-04-20T01:17:03.736Z,71.3
2019-04-20T01:18:17.958Z,73.1
2019-04-20T01:19:32.095Z,75.1
2019-04-20T01:20:46.256Z,69.8
2019-04-20T01:22:00.435Z,69.2
2019-04-20T01:23:14.623Z,69.7
2019-04-20T01:24:28.799Z,68.2
2019-04-20T01:25:43.026Z,67.6
2019-04-20T01:26:57.333Z,69.6
2019-04-20T01:28:11.313Z,68.6
2019-04-20T01:29:25.523Z,69.8
2019-04-20T01:30:39.630Z,69.3
2019-04-20T01:31:53.911Z,70.7
2019-04-20T01:33:11.742Z,78
2019-04-20T01:34:22.228Z,75.7
2019-04-20T01:35:36.550Z,71
2019-04-20T01:36:50.523Z,70.8
2019-04-20T01:38:04.717Z,71.4
2019-04-20T01:39:18.876Z,71.1
2019-04-20T01:40:33.044Z,70.6
2019-04-20T01:41:47.220Z,69.8
2019-04-20T01:43:01.379Z,71.1
2019-04-20T01:44:15.561Z,74.9
2019-04-20T01:45:29.765Z,73.6
2019-04-20T01:46:43.939Z,75.1
2019-04-20T01:47:58.210Z,76
2019-04-20T01:49:12.414Z,74.9
2019-04-20T01:50:26.499Z,73.3
2019-04-20T01:51:40.684Z,72
2019-04-20T01:52:54.857Z,71.8
2019-04-20T01:54:14.027Z,74.9
2019-04-20T01:55:23.300Z,73.2
2019-04-20T01:56:37.498Z,73.8
2019-04-20T01:57:51.600Z,73.7
2019-04-20T01:59:06.286Z,74.1
2019-04-20T02:00:19.923Z,73.7
2019-04-20T02:01:34.093Z,70.9
2019-04-20T02:02:48.359Z,71
2019-04-20T02:04:02.528Z,72.3
2019-04-20T02:05:16.629Z,74.7
2019-04-20T02:06:30.837Z,75.4
2019-04-20T02:07:45.025Z,74.3
2019-04-20T02:08:59.207Z,74.7
2019-04-20T02:10:13.364Z,76.2
2019-04-20T02:11:27.527Z,73.9
2019-04-20T02:12:41.715Z,71.9
2019-04-20T02:13:56.001Z,70.8
2019-04-20T02:15:10.200Z,77.9
2019-04-20T02:16:24.422Z,76.5
2019-04-20T02:17:38.430Z,71.5
2019-04-20T02:18:52.624Z,72.3
2019-04-20T02:20:07.130Z,72.4
2019-04-20T02:21:20.996Z,71.3
2019-04-20T02:22:35.248Z,72.4
2019-04-20T02:23:49.375Z,73.7
2019-04-20T02:25:03.570Z,71.8
2019-04-20T02:26:17.827Z,72.5
2019-04-20T02:27:31.922Z,71.5
2019-04-20T02:28:46.108Z,70.7
2019-04-20T02:30:00.284Z,71.5
2019-04-20T02:31:14.491Z,72.5
2019-04-20T02:32:28.777Z,72.7
2019-04-20T02:33:43.340Z,72.9
2019-04-20T02:34:57.035Z,77.2
2019-04-20T02:36:11.235Z,76.9
2019-04-20T02:37:25.410Z,73.9
2019-04-20T02:38:39.592Z,74
2019-04-20T02:39:53.770Z,72.3
2019-04-20T02:41:07.966Z,72.9
2019-04-20T02:42:22.342Z,72
2019-04-20T02:43:36.367Z,72.7
2019-04-20T02:44:50.588Z,74
2019-04-20T02:46:04.711Z,74.5
2019-04-20T02:47:19.195Z,74.6
2019-04-20T02:48:33.091Z,75.4
2019-04-20T02:49:47.318Z,75.4
2019-04-20T02:51:01.573Z,74.5
2019-04-20T02:52:15.859Z,74.8
2019-04-20T02:53:29.957Z,73.6
2019-04-20T02:54:44.086Z,74.2
2019-04-20T02:55:58.312Z,73.6
2019-04-20T02:57:12.395Z,75.3
2019-04-20T02:58:26.640Z,76.1
2019-04-20T02:59:40.791Z,76.3
2019-04-20T03:00:54.970Z,77.2
2019-04-20T03:02:09.263Z,75.3
2019-04-20T03:03:23.504Z,75.3
2019-04-20T03:04:37.560Z,75.4
2019-04-20T03:05:51.745Z,76.8
2019-04-20T03:07:05.924Z,73.6
2019-04-20T03:08:20.176Z,72.8
2019-04-20T03:09:34.420Z,72.2
2019-04-20T03:10:49.047Z,74.4
2019-04-20T03:12:02.693Z,73.7
2019-04-20T03:13:16.868Z,74.2
2019-04-20T03:14:31.165Z,74.2
2019-04-20T03:15:45.259Z,74
2019-04-20T03:16:59.472Z,72.3
2019-04-20T03:18:13.650Z,74.4
2019-04-20T03:19:27.871Z,75.5
2019-04-20T03:20:42.091Z,77.7
2019-04-20T03:21:57.027Z,79.4
2019-04-20T03:23:10.390Z,78.1
2019-04-20T03:24:24.870Z,76.4
2019-04-20T03:25:38.882Z,83
2019-04-20T03:26:52.945Z,78.9
2019-04-20T03:28:07.134Z,80.4
2019-04-20T03:29:21.348Z,79.8
2019-04-20T03:30:35.524Z,77.5
2019-04-20T03:31:49.740Z,77.8
2019-04-20T03:33:03.863Z,76
2019-04-20T03:34:18.189Z,76.6
2019-04-20T03:35:32.380Z,78
2019-04-20T03:36:46.751Z,78.1
2019-04-20T03:38:00.708Z,81.7
2019-04-20T03:39:14.799Z,76.7
2019-04-20T03:40:29.014Z,75.9
2019-04-20T03:41:43.193Z,81.3
2019-04-20T03:42:57.443Z,76.4
2019-04-20T03:44:11.559Z,81
2019-04-20T03:45:25.891Z,76.4
2019-04-20T03:46:40.050Z,76.9
2019-04-20T03:47:54.357Z,76.4
2019-04-20T03:49:08.369Z,77.7
2019-04-20T03:50:22.561Z,77.6
2019-04-20T03:51:36.868Z,81.8
2019-04-20T03:52:50.957Z,79
2019-04-20T03:54:05.257Z,78.2
2019-04-20T03:55:19.422Z,77.8
2019-04-20T03:56:33.534Z,80
2019-04-20T03:57:47.713Z,78.9
2019-04-20T03:59:04.777Z,81
2019-04-20T04:00:16.229Z,80.9
2019-04-20T04:02:44.467Z,85.2
2019-04-20T04:03:58.681Z,83.5
2019-04-20T04:05:12.845Z,81.4
2019-04-20T04:06:27.029Z,78.3
2019-04-20T04:07:41.239Z,78.2
2019-04-20T04:08:56.752Z,81.2
2019-04-20T04:10:09.628Z,78.2
2019-04-20T04:11:23.813Z,76.8
2019-04-20T04:12:38.005Z,78.7
2019-04-20T04:13:52.215Z,83.4
2019-04-20T04:15:06.439Z,86
2019-04-20T04:16:20.567Z,78.8
2019-04-20T04:17:34.789Z,77.8
2019-04-20T04:18:48.978Z,80.2
2019-04-20T04:20:03.196Z,78.2
2019-04-20T04:21:17.426Z,77.8
2019-04-20T04:22:31.557Z,79
2019-04-20T04:23:45.897Z,79
2019-04-20T04:24:59.979Z,79.9
2019-04-20T04:26:14.155Z,79.2
2019-04-20T04:27:28.338Z,80.5
2019-04-20T04:28:42.523Z,82.1
2019-04-20T04:29:56.776Z,82.4
2019-04-20T04:31:10.939Z,82.5
2019-04-20T04:32:25.240Z,79.2
2019-04-20T04:33:39.341Z,80.5
2019-04-20T04:34:53.513Z,84.4
2019-04-20T04:36:07.720Z,85.9
2019-04-20T04:37:21.968Z,86.8
2019-04-20T04:38:36.102Z,82.7
2019-04-20T04:39:53.884Z,83.1
2019-04-20T04:41:04.604Z,81.9
2019-04-20T04:42:18.695Z,80.2
2019-04-20T04:43:32.918Z,81.1
2019-04-20T04:44:48.924Z,80.2
2019-04-20T04:46:06.690Z,81.4
2019-04-20T04:47:15.580Z,77.6
2019-04-20T04:48:29.777Z,79.9
2019-04-20T04:49:44.051Z,81.7
2019-04-20T04:50:58.132Z,76.6
2019-04-20T04:52:12.270Z,75
2019-04-20T04:53:26.472Z,78.4
2019-04-20T04:54:40.643Z,74.9
2019-04-20T04:55:57.269Z,74.3
2019-04-20T04:57:11.754Z,73.9
2019-04-20T04:58:23.304Z,72.8
2019-04-20T04:59:37.456Z,73
2019-04-20T05:00:51.746Z,80.5
2019-04-20T05:02:05.773Z,74
2019-04-20T05:03:19.985Z,81
2019-04-20T05:04:34.198Z,73
2019-04-20T05:05:48.421Z,77.1
2019-04-20T05:07:02.600Z,78.8
2019-04-20T05:08:16.796Z,69.1
2019-04-20T05:09:30.890Z,71.2
2019-04-20T05:10:45.116Z,76.1
2019-04-20T05:11:59.279Z,69.4
2019-04-20T05:13:13.467Z,68
2019-04-20T05:14:33.452Z,69.2
2019-04-20T05:15:41.849Z,66.7
2019-04-20T05:16:56.053Z,66
2019-04-20T05:18:10.251Z,64.4
2019-04-20T05:19:24.384Z,67.2
2019-04-20T05:20:38.578Z,65
2019-04-20T05:21:52.856Z,64.8
2019-04-20T05:23:06.984Z,63.7
2019-04-20T05:24:21.092Z,63.4
2019-04-20T05:25:35.383Z,62.5
2019-04-20T05:26:49.421Z,60
2019-04-20T05:28:03.703Z,60.7
2019-04-20T05:29:17.804Z,61.1
2019-04-20T05:31:46.140Z,57.7
2019-04-20T05:33:00.245Z,58.5
2019-04-20T05:34:14.446Z,57.5
2019-04-20T05:35:28.601Z,58.3
2019-04-20T05:36:48.437Z,58.3
2019-04-20T05:37:56.896Z,55.7
2019-04-20T05:39:11.202Z,55.3
2019-04-20T05:40:25.436Z,54.8
2019-04-20T05:41:39.503Z,54.3
2019-04-20T05:42:53.535Z,53.7
2019-04-20T05:44:07.779Z,53.2
2019-04-20T05:45:22.459Z,52.5
2019-04-20T05:46:36.091Z,53.6
2019-04-20T05:47:50.224Z,55.9
2019-04-20T05:49:04.276Z,52.4
2019-04-20T05:50:19.157Z,56.5
2019-04-20T05:51:33.849Z,58.5
2019-04-20T05:52:46.712Z,51.6
2019-04-20T05:54:00.832Z,53
2019-04-20T05:55:15.113Z,48.4
2019-04-20T05:56:29.145Z,49.5
2019-04-20T05:57:43.280Z,49.6
2019-04-20T05:58:57.565Z,48.5
2019-04-20T06:00:11.541Z,51.5
2019-04-20T06:01:25.658Z,52.2
2019-04-20T06:02:39.900Z,49
2019-04-20T06:03:54.039Z,47.8
2019-04-20T06:05:08.077Z,52.6
2019-04-20T06:06:22.183Z,48.8
2019-04-20T06:07:36.406Z,44.5
2019-04-20T06:08:50.476Z,48.3
2019-04-20T06:10:04.727Z,46.6
2019-04-20T06:11:18.836Z,45
2019-04-20T06:12:32.959Z,51.1
2019-04-20T06:13:47.106Z,48
2019-04-20T06:15:03.791Z,52.7
2019-04-20T06:16:15.335Z,43.9
2019-04-20T06:17:29.369Z,45
2019-04-20T06:18:43.464Z,46.2
2019-04-20T06:19:57.596Z,45.8
2019-04-20T06:21:11.672Z,43.8
2019-04-20T06:22:25.858Z,43.9
2019-04-20T06:23:39.909Z,45.1
2019-04-20T06:24:54.173Z,44.1
2019-04-20T06:26:08.597Z,45.6
2019-04-20T06:27:22.404Z,43.3
2019-04-20T06:28:36.578Z,45
2019-04-20T06:29:50.553Z,44.8
2019-04-20T06:31:04.803Z,41.9
2019-04-20T06:32:18.784Z,41.6
2019-04-20T06:33:32.774Z,40.2
2019-04-20T06:34:46.888Z,41.1
2019-04-20T06:36:00.983Z,45
2019-04-20T06:37:15.143Z,39.9
2019-04-20T06:38:29.238Z,42.4
2019-04-20T06:39:43.428Z,41.8
2019-04-20T06:40:57.444Z,41.4
2019-04-20T06:42:11.520Z,41.7
2019-04-20T06:43:25.619Z,40.9
2019-04-20T06:44:39.725Z,40.7
2019-04-20T06:45:53.899Z,39.6
2019-04-20T06:47:08.033Z,39.5
2019-04-20T06:48:22.044Z,40.9
2019-04-20T06:49:36.142Z,40.2
2019-04-20T06:50:50.411Z,39.5
2019-04-20T06:52:04.342Z,39.5
2019-04-20T06:53:18.495Z,38.8
2019-04-20T06:54:32.578Z,43.4
2019-04-20T06:55:46.738Z,37.4
2019-04-20T06:57:00.764Z,40
2019-04-20T06:58:15.103Z,36.9
2019-04-20T06:59:28.992Z,35.9
2019-04-20T07:00:43.212Z,35.6
2019-04-20T07:01:57.169Z,37.6
2019-04-20T07:03:11.255Z,37.2
2019-04-20T07:04:25.360Z,37.2
2019-04-20T07:05:39.581Z,36.5
2019-04-20T07:06:53.588Z,36
2019-04-20T07:08:07.746Z,35.6
2019-04-20T07:09:21.730Z,35.9
2019-04-20T07:10:35.794Z,35.8
2019-04-20T07:11:49.894Z,35.3
2019-04-20T07:14:18.081Z,35.9
2019-04-20T07:15:32.145Z,35.3
2019-04-20T07:16:46.224Z,35.9
2019-04-20T07:18:00.395Z,35.3
2019-04-20T07:19:14.367Z,37.8
2019-04-20T07:20:28.454Z,35.4
2019-04-20T07:21:42.543Z,35.7
2019-04-20T07:22:56.613Z,34.3
2019-04-20T07:24:10.703Z,36
2019-04-20T07:25:24.894Z,34.1
2019-04-20T07:26:38.865Z,33.5
2019-04-20T07:27:52.941Z,34.9
2019-04-20T07:29:07.067Z,33.7
2019-04-20T07:30:21.093Z,33.1
2019-04-20T07:31:35.324Z,33.7
2019-04-20T07:32:49.257Z,32.8
2019-04-20T07:34:03.357Z,32.6
2019-04-20T07:35:17.529Z,32.7
2019-04-20T07:36:31.468Z,31.8
2019-04-20T07:37:45.618Z,33.5
2019-04-20T07:38:59.650Z,34.3
2019-04-20T07:40:13.671Z,32.7
2019-04-20T07:41:27.725Z,30.1
2019-04-20T07:42:41.789Z,31.4
2019-04-20T07:43:55.872Z,31.1
2019-04-20T07:45:09.924Z,30.9
2019-04-20T07:46:24.045Z,30.8
2019-04-20T07:47:38.370Z,32
2019-04-20T07:48:52.239Z,30.8
2019-04-20T07:50:06.208Z,30.9
2019-04-20T07:51:20.380Z,31.3
2019-04-20T07:52:34.344Z,32.2
2019-04-20T07:53:48.402Z,31.8
2019-04-20T07:55:02.501Z,31.2
2019-04-20T07:57:30.604Z,30.8
2019-04-20T07:58:44.733Z,31
2019-04-20T07:59:58.738Z,29.7
2019-04-20T08:01:12.812Z,32.7
2019-04-20T08:02:26.855Z,30.3
2019-04-20T08:03:40.926Z,31.5
2019-04-20T08:04:55.016Z,31.6
2019-04-20T08:06:09.100Z,31.9
2019-04-20T08:07:23.117Z,31.7
2019-04-20T08:08:37.237Z,30.7
2019-04-20T08:09:51.348Z,30.3
2019-04-20T08:11:05.362Z,29.8
2019-04-20T08:12:19.335Z,31.2
2019-04-20T08:13:33.516Z,31.3
2019-04-20T08:14:47.546Z,32.7
2019-04-20T08:16:01.521Z,31
2019-04-20T08:17:15.671Z,33.6
2019-04-20T08:18:29.752Z,31.8
2019-04-20T08:19:43.727Z,32.5
2019-04-20T08:20:57.841Z,32.1
2019-04-20T08:22:11.812Z,31.5
2019-04-20T08:23:25.889Z,31.5
2019-04-20T08:24:39.938Z,31.2
2019-04-20T08:25:57.631Z,31.7
2019-04-20T08:27:08.283Z,31.6
2019-04-20T08:28:22.104Z,31.4
2019-04-20T08:29:36.161Z,31.7
2019-04-20T08:30:50.280Z,31.7
2019-04-20T08:32:04.280Z,31.1
2019-04-20T08:33:18.327Z,32.7
2019-04-20T08:34:32.378Z,30.4
2019-04-20T08:35:46.415Z,32.3
2019-04-20T08:37:00.502Z,29.8
2019-04-20T08:38:14.547Z,30.8
2019-04-20T08:39:28.550Z,29.9
2019-04-20T08:40:42.664Z,30.1
2019-04-20T08:41:56.801Z,30.2
2019-04-20T08:43:10.724Z,30.3
2019-04-20T08:44:24.778Z,30.1
2019-04-20T08:45:38.777Z,30
2019-04-20T08:46:52.820Z,30.2
2019-04-20T08:48:06.885Z,30.6
2019-04-20T08:49:20.949Z,29.8
2019-04-20T08:50:34.945Z,30.4
2019-04-20T08:51:49.115Z,30.1
2019-04-20T08:53:03.144Z,31
2019-04-20T08:54:17.119Z,31.6
2019-04-20T08:55:36.109Z,29.1
2019-04-20T08:56:45.210Z,29.4
2019-04-20T08:57:59.185Z,28.4
2019-04-20T08:59:16.573Z,29.6
2019-04-20T09:00:27.268Z,29.5
2019-04-20T09:01:41.368Z,30.1
2019-04-20T09:02:55.334Z,29.8
2019-04-20T09:04:09.483Z,29.6
2019-04-20T09:05:23.417Z,30.8
2019-04-20T09:06:37.466Z,30.5
2019-04-20T09:07:51.775Z,30.1
2019-04-20T09:09:05.569Z,29.4
2019-04-20T09:10:19.629Z,30.1
2019-04-20T09:11:33.592Z,30.2
2019-04-20T09:12:47.621Z,30.4
2019-04-20T09:14:01.678Z,30.8
2019-04-20T09:15:15.763Z,29
2019-04-20T09:16:29.715Z,29.1
2019-04-20T09:17:43.739Z,29.3
2019-04-20T09:18:57.808Z,29.4
2019-04-20T09:20:11.942Z,29.5
2019-04-20T09:21:26.898Z,28.4
2019-04-20T09:22:39.811Z,28.9
2019-04-20T09:23:55.690Z,28.4
2019-04-20T09:25:07.888Z,28.7
2019-04-20T09:26:21.890Z,28.5
2019-04-20T09:27:36.104Z,28.1
2019-04-20T09:28:49.946Z,28.4
2019-04-20T09:30:04.074Z,27.9
2019-04-20T09:31:17.976Z,28.6
2019-04-20T09:32:33.933Z,28.4
2019-04-20T09:33:46.072Z,27.7
2019-04-20T09:35:00.172Z,27.9
2019-04-20T09:36:14.299Z,27.4
2019-04-20T09:37:28.223Z,26.9
2019-04-20T09:38:42.219Z,28.4
2019-04-20T09:39:56.212Z,27.4
2019-04-20T09:41:10.152Z,25.3
2019-04-20T09:42:24.226Z,26.5
2019-04-20T09:43:38.194Z,27
2019-04-20T09:44:52.224Z,27.6
2019-04-20T09:46:06.348Z,28.2
2019-04-20T09:47:20.352Z,28.6
2019-04-20T09:48:34.291Z,28.6
2019-04-20T09:49:48.321Z,28.1
2019-04-20T09:51:02.339Z,27
2019-04-20T09:52:16.435Z,27.3
2019-04-20T09:53:30.448Z,27.7
2019-04-20T09:54:44.415Z,27.3
2019-04-20T09:55:58.647Z,26.4
2019-04-20T09:57:12.555Z,27.1
2019-04-20T09:58:26.508Z,28
2019-04-20T09:59:40.508Z,29.2
2019-04-20T10:00:54.617Z,28.3
2019-04-20T10:02:08.582Z,28.6
2019-04-20T10:03:22.601Z,29
2019-04-20T10:04:36.635Z,27.2
2019-04-20T10:05:50.688Z,27.6
2019-04-20T10:07:04.704Z,28.7
2019-04-20T10:08:18.676Z,27.6
2019-04-20T10:09:32.705Z,27.3
2019-04-20T10:10:46.712Z,26.2
2019-04-20T10:12:00.737Z,28.1
2019-04-20T10:13:19.194Z,28.4
2019-04-20T10:14:28.795Z,28.4
2019-04-20T10:15:42.882Z,27.3
2019-04-20T10:16:56.885Z,27.4
2019-04-20T10:18:10.862Z,28
2019-04-20T10:19:25.001Z,27.7
2019-04-20T10:20:38.974Z,28.1
2019-04-20T10:21:52.903Z,27.9
2019-04-20T10:23:06.997Z,27.2
2019-04-20T10:24:20.992Z,26.3
2019-04-20T10:25:35.228Z,26.1
2019-04-20T10:26:48.986Z,27.5
2019-04-20T10:28:03.084Z,26.1
2019-04-20T10:29:17.024Z,25.3
2019-04-20T10:30:31.032Z,27
2019-04-20T10:31:45.062Z,26.2
2019-04-20T10:32:59.082Z,25.9
2019-04-20T10:34:13.297Z,26.1
2019-04-20T10:35:27.201Z,28.3
2019-04-20T10:36:41.277Z,27
2019-04-20T10:37:55.187Z,27
2019-04-20T10:39:09.182Z,26.9
2019-04-20T10:40:23.118Z,27.4
2019-04-20T10:41:37.276Z,25
2019-04-20T10:42:51.158Z,25.2
2019-04-20T10:44:05.246Z,25.6
2019-04-20T10:45:19.185Z,24.6
2019-04-20T10:46:33.213Z,26.6
2019-04-20T10:47:47.267Z,27.4
2019-04-20T10:49:01.273Z,26
2019-04-20T10:50:15.323Z,26.2
2019-04-20T10:51:29.357Z,25.5
2019-04-20T10:52:43.389Z,25.3
2019-04-20T10:53:57.347Z,24.7
2019-04-20T10:55:11.416Z,25.2
2019-04-20T10:56:25.466Z,25.7
2019-04-20T10:57:39.457Z,26.5
2019-04-20T10:58:53.380Z,25.3
2019-04-20T11:00:07.442Z,26.5
2019-04-20T11:01:21.591Z,25.1
2019-04-20T11:02:35.444Z,26.1
2019-04-20T11:03:49.563Z,23.6
2019-04-20T11:05:03.480Z,25.5
2019-04-20T11:06:17.460Z,25.2
2019-04-20T11:07:31.588Z,27.2
2019-04-20T11:08:45.623Z,25.4
2019-04-20T11:09:59.520Z,24.3
2019-04-20T11:11:13.520Z,25.2
2019-04-20T11:12:27.582Z,25.5
2019-04-20T11:13:41.644Z,24.1
2019-04-20T11:14:56.981Z,25.2
2019-04-20T11:16:09.571Z,26.1
2019-04-20T11:17:23.611Z,26.1
2019-04-20T11:18:37.632Z,26.8
2019-04-20T11:19:51.614Z,24.6
2019-04-20T11:21:05.617Z,25
2019-04-20T11:22:19.714Z,25.9
2019-04-20T11:23:33.808Z,24.9
2019-04-20T11:24:47.673Z,25.4
2019-04-20T11:26:01.881Z,27.9
2019-04-20T11:27:15.724Z,25.9
2019-04-20T11:28:29.732Z,26.4
2019-04-20T11:29:43.794Z,25.7
2019-04-20T11:30:57.764Z,24.7
2019-04-20T11:32:11.804Z,24.5
2019-04-20T11:33:25.789Z,24.9
2019-04-20T11:34:39.816Z,24.5
2019-04-20T11:35:53.816Z,25.1
2019-04-20T11:37:07.848Z,25.1
2019-04-20T11:38:21.859Z,26.4
2019-04-20T11:39:35.873Z,26.8
2019-04-20T11:40:49.900Z,26.7
2019-04-20T11:42:04.057Z,26.8
2019-04-20T11:43:17.955Z,25.1
2019-04-20T11:44:31.955Z,25.5
2019-04-20T11:45:46.087Z,26.5
2019-04-20T11:47:00.053Z,25.6
2019-04-20T11:48:14.068Z,25.2
2019-04-20T11:49:28.038Z,25.1
2019-04-20T11:50:42.165Z,25.5
2019-04-20T11:51:56.240Z,24.9
2019-04-20T11:53:10.136Z,26
2019-04-20T11:54:24.277Z,24.6
2019-04-20T11:55:38.226Z,26.1
2019-04-20T11:56:52.143Z,25.4
2019-04-20T11:58:06.195Z,26
2019-04-20T11:59:20.339Z,24.7
2019-04-20T12:00:34.207Z,24.6
2019-04-20T12:01:48.292Z,25.9
2019-04-20T12:03:02.262Z,26.2
2019-04-20T12:04:16.268Z,24
2019-04-20T12:05:30.313Z,24.5
2019-04-20T12:06:44.370Z,27.1
2019-04-20T12:07:58.407Z,24.1
2019-04-20T12:09:12.378Z,26.9
2019-04-20T12:10:26.375Z,24.7
2019-04-20T12:11:40.381Z,24.6
2019-04-20T12:12:54.472Z,25
2019-04-20T12:14:08.396Z,25.1
2019-04-20T12:15:22.567Z,25
2019-04-20T12:16:36.577Z,25.4
2019-04-20T12:17:50.494Z,25.1
2019-04-20T12:19:04.566Z,23.9
2019-04-20T12:20:18.536Z,24.6
2019-04-20T12:21:32.552Z,24.6
2019-04-20T12:22:46.660Z,23.6
2019-04-20T12:24:00.620Z,22.9
2019-04-20T12:25:14.976Z,23.3
2019-04-20T12:26:28.928Z,22.3
2019-04-20T12:27:42.703Z,23.7
2019-04-20T12:28:56.716Z,22.9
2019-04-20T12:30:10.771Z,23.6
2019-04-20T12:31:24.814Z,23.2
2019-04-20T12:32:38.817Z,23.8
2019-04-20T12:33:52.854Z,23.6
2019-04-20T12:35:06.912Z,24.9
2019-04-20T12:36:21.010Z,24
2019-04-20T12:37:35.434Z,22.1
2019-04-20T12:38:48.968Z,24.3
2019-04-20T12:40:03.057Z,22.2
2019-04-20T12:41:17.167Z,24.6
2019-04-20T12:42:31.226Z,24.8
2019-04-20T12:43:45.249Z,25.4
2019-04-20T12:44:59.149Z,23.9
2019-04-20T12:46:13.143Z,22.9
2019-04-20T12:47:27.250Z,23
2019-04-20T12:48:41.251Z,22.8
2019-04-20T12:49:55.263Z,22.2
2019-04-20T12:51:09.270Z,23.8
2019-04-20T12:52:23.284Z,22.7
2019-04-20T12:53:37.340Z,23.5
2019-04-20T12:54:51.430Z,21.8
2019-04-20T12:56:05.685Z,22.8
2019-04-20T12:57:19.568Z,22.1
2019-04-20T12:58:33.488Z,25
2019-04-20T12:59:47.497Z,22.6
2019-04-20T13:01:01.657Z,22.3
2019-04-20T13:02:15.567Z,22.4
2019-04-20T13:03:29.627Z,23.6
2019-04-20T13:04:43.575Z,24.6
2019-04-20T13:05:57.562Z,25.1
2019-04-20T13:07:11.597Z,24
2019-04-20T13:08:25.614Z,24.8
2019-04-20T13:09:39.634Z,25.4
2019-04-20T13:10:53.652Z,24.6
2019-04-20T13:12:07.684Z,25
2019-04-20T13:13:21.748Z,24.5
2019-04-20T13:14:37.041Z,23.6
2019-04-20T13:15:49.849Z,24.3
2019-04-20T13:17:03.828Z,24.8
2019-04-20T13:18:17.823Z,24.2
2019-04-20T13:19:31.858Z,24.4
2019-04-20T13:20:50.002Z,25.1
2019-04-20T13:22:02.289Z,24.6
2019-04-20T13:23:13.963Z,24.5
2019-04-20T13:24:28.016Z,24.9
2019-04-20T13:25:42.098Z,23.8
2019-04-20T13:26:56.042Z,25.9
2019-04-20T13:28:10.150Z,25.6
2019-04-20T13:29:24.191Z,23.5
2019-04-20T13:30:38.157Z,23
2019-04-20T13:31:52.198Z,23.3
2019-04-20T13:33:06.318Z,22.9
2019-04-20T13:34:20.457Z,23.6
2019-04-20T13:35:34.391Z,23.4
2019-04-20T13:36:48.396Z,24
2019-04-20T13:38:03.975Z,23.9
2019-04-20T13:39:16.491Z,25.1
2019-04-20T13:40:30.466Z,25.4
2019-04-20T13:41:44.594Z,24
2019-04-20T13:42:58.583Z,25.1
2019-04-20T13:44:12.551Z,26.4
2019-04-20T13:45:26.617Z,24.4
2019-04-20T13:46:40.623Z,24.6
2019-04-20T13:47:54.660Z,23.5
2019-04-20T13:49:08.819Z,24.8
2019-04-20T13:50:22.702Z,25.5
2019-04-20T13:51:36.755Z,25.2
2019-04-20T13:52:50.880Z,25.1
2019-04-20T13:54:04.841Z,24.4
2019-04-20T13:55:18.980Z,25.1
2019-04-20T13:56:32.980Z,24.1
2019-04-20T13:57:49.750Z,24.6
2019-04-20T13:59:00.960Z,24.4
2019-04-20T14:00:15.003Z,24.3
2019-04-20T14:01:29.068Z,24.6
2019-04-20T14:02:43.091Z,25.5
2019-04-20T14:03:57.111Z,24.5
2019-04-20T14:05:11.242Z,24.6
2019-04-20T14:06:25.253Z,23.8
2019-04-20T14:07:39.266Z,23.6
2019-04-20T14:08:53.436Z,23.8
2019-04-20T14:10:07.328Z,24.5
2019-04-20T14:11:21.662Z,23.6
2019-04-20T14:12:35.508Z,24
2019-04-20T14:13:49.464Z,24.9
2019-04-20T14:15:03.635Z,23.5
2019-04-20T14:16:17.613Z,24
2019-04-20T14:17:31.624Z,24
2019-04-20T14:18:45.669Z,23.5
2019-04-20T14:19:59.814Z,23.6
2019-04-20T14:21:13.793Z,22.9
2019-04-20T14:22:27.774Z,23.2
2019-04-20T14:23:41.916Z,23.6
2019-04-20T14:24:55.837Z,23.8
2019-04-20T14:26:09.881Z,22.2
2019-04-20T14:27:24.009Z,24
2019-04-20T14:28:37.975Z,23.6
2019-04-20T14:29:52.006Z,23.6
2019-04-20T14:32:20.078Z,24
2019-04-20T14:33:34.106Z,24.6
2019-04-20T14:34:48.141Z,23.5
2019-04-20T14:36:02.187Z,24.1
2019-04-20T14:37:16.272Z,25.6
2019-04-20T14:38:30.293Z,24
2019-04-20T14:39:44.265Z,23.6
2019-04-20T14:40:58.334Z,23.7
2019-04-20T14:42:12.367Z,24.8
2019-04-20T14:43:26.391Z,22.5
2019-04-20T14:44:40.500Z,24.8
2019-04-20T14:45:54.592Z,23.4
2019-04-20T14:47:08.573Z,23.6
2019-04-20T14:48:22.545Z,23.6
2019-04-20T14:49:36.777Z,24.5
2019-04-20T14:50:51.178Z,24.5
2019-04-20T14:52:04.687Z,23.3
2019-04-20T14:53:18.721Z,23.5
2019-04-20T14:54:32.738Z,24.9
2019-04-20T14:55:46.895Z,24.6
2019-04-20T14:57:00.935Z,24.6
2019-04-20T14:58:14.877Z,22.7
2019-04-20T14:59:28.977Z,22.9
2019-04-20T15:00:42.968Z,23.6
2019-04-20T15:01:57.070Z,24.4
2019-04-20T15:03:11.064Z,24.4
2019-04-20T15:04:25.716Z,23.8
2019-04-20T15:05:39.161Z,24.6
2019-04-20T15:06:53.184Z,24
2019-04-20T15:08:07.338Z,23.7
2019-04-20T15:09:21.321Z,24.5
2019-04-20T15:10:35.365Z,23.1
2019-04-20T15:11:49.413Z,21.9
2019-04-20T15:13:03.689Z,24.3
2019-04-20T15:14:17.500Z,22.9
2019-04-20T15:15:31.564Z,22.8
2019-04-20T15:16:45.692Z,22.3
2019-04-20T15:17:59.731Z,23.5
2019-04-20T15:19:13.682Z,24.5
2019-04-20T15:20:27.770Z,23.6
2019-04-20T15:21:41.820Z,23.9
2019-04-20T15:22:55.864Z,23.2
2019-04-20T15:24:09.917Z,24.1
2019-04-20T15:25:24.035Z,23.9
2019-04-20T15:26:38.061Z,24.1
2019-04-20T15:27:52.055Z,23.6
2019-04-20T15:29:06.138Z,23.5
2019-04-20T15:30:20.355Z,24.6
2019-04-20T15:31:34.227Z,23.5
2019-04-20T15:32:48.294Z,23
2019-04-20T15:34:02.344Z,23.4
2019-04-20T15:35:16.375Z,22.9
2019-04-20T15:36:30.431Z,23.6
2019-04-20T15:37:44.478Z,22.8
2019-04-20T15:38:58.642Z,22.9
2019-04-20T15:40:12.600Z,23.6
2019-04-20T15:41:26.699Z,23.7
2019-04-20T15:42:40.725Z,24.1
2019-04-20T15:43:54.911Z,23.3
2019-04-20T15:45:08.948Z,25.1
2019-04-20T15:46:22.902Z,22.9
2019-04-20T15:47:36.970Z,23.1
2019-04-20T15:48:50.956Z,23.1
2019-04-20T15:50:05.021Z,22.8
2019-04-20T15:51:19.096Z,23.5
2019-04-20T15:52:33.097Z,22.6
2019-04-20T15:53:47.158Z,23
2019-04-20T15:55:01.229Z,24.4
2019-04-20T15:56:15.313Z,23.3
2019-04-20T15:57:29.365Z,23.7
2019-04-20T15:58:43.371Z,24.5
2019-04-20T15:59:57.436Z,24.4
2019-04-20T16:01:11.549Z,23.7
2019-04-20T16:02:25.506Z,22.7
2019-04-20T16:03:39.593Z,22.6
2019-04-20T16:04:53.647Z,23.7
2019-04-20T16:06:07.692Z,23.7
2019-04-20T16:07:21.770Z,24.8
2019-04-20T16:08:35.837Z,24.7
2019-04-20T16:09:49.895Z,24.7
2019-04-20T16:11:03.952Z,23.4
2019-04-20T16:12:18.269Z,23.1
2019-04-20T16:13:34.474Z,23.7
2019-04-20T16:14:46.161Z,22.6
2019-04-20T16:16:00.302Z,24.7
2019-04-20T16:17:14.277Z,23.7
2019-04-20T16:18:28.340Z,24.2
2019-04-20T16:19:42.421Z,24.1
2019-04-20T16:20:56.466Z,23.8
2019-04-20T16:22:10.582Z,24.6
2019-04-20T16:23:24.629Z,23.4
2019-04-20T16:24:40.128Z,23.4
2019-04-20T16:27:06.902Z,23.7
2019-04-20T16:28:20.858Z,24.1
2019-04-20T16:29:35.068Z,23.5
2019-04-20T16:30:49.018Z,24.9
2019-04-20T16:32:03.077Z,24.8
2019-04-20T16:33:17.162Z,24.4
2019-04-20T16:34:31.239Z,24.7
2019-04-20T16:35:45.287Z,23.5
2019-04-20T16:36:59.377Z,24.7
2019-04-20T16:38:13.481Z,24.6
2019-04-20T16:39:27.531Z,25.3